CR04 weather

Cremona-Migliaro Airport
Cremona, Lombardy, Italy

Public forecast

Using degrees Celsius for public forecast. Weather courtesy of forecast.io.

METAR (pilot weather report)

Closest report is Piacenza San Damiano Air Base, 19.3 nm (35.8 km) SW. Retrieved 2019/05/22 09:55 UTC (28 minutes ago):

LIMS 220955Z 06004KT 9999 FEW030 20/19 Q1013

TAF (pilot weather forecast)

Forecast is more than 12 hours old.

Closest forecast is Piacenza San Damiano Air Base, 19.3 nm (35.8 km) SW. Retrieved 2015/10/16 09:21 UTC (4 years ago):

TAF TAF LIMS 160800Z 1609/1621 VRB05KT 9999 SCT030 BECMG 1613/1615 35007KT SCT030 BKN060